sensor_id;sensor_type;location;lat;lon;timestamp;pressure;altitude;pressure_sealevel;temperature;humidity
78717;BME280;68045;50.042;14.432;2023-07-13T00:03:35;97962.50;;;23.15;56.35
78717;BME280;68045;50.042;14.432;2023-07-13T00:07:36;97959.81;;;23.15;57.38
78717;BME280;68045;50.042;14.432;2023-07-13T00:11:37;97971.38;;;23.15;58.42
78717;BME280;68045;50.042;14.432;2023-07-13T00:15:38;97968.34;;;23.17;58.60
78717;BME280;68045;50.042;14.432;2023-07-13T00:19:39;97971.53;;;23.19;59.30
78717;BME280;68045;50.042;14.432;2023-07-13T00:23:41;97967.06;;;23.23;59.12
78717;BME280;68045;50.042;14.432;2023-07-13T00:27:43;97960.91;;;23.22;59.42
78717;BME280;68045;50.042;14.432;2023-07-13T00:31:44;97955.69;;;23.26;59.59
78717;BME280;68045;50.042;14.432;2023-07-13T00:35:45;97954.03;;;23.42;59.10
78717;BME280;68045;50.042;14.432;2023-07-13T00:39:46;97932.03;;;23.40;59.24
78717;BME280;68045;50.042;14.432;2023-07-13T00:43:47;97923.50;;;23.29;60.01
78717;BME280;68045;50.042;14.432;2023-07-13T00:47:48;97926.34;;;23.33;60.00
78717;BME280;68045;50.042;14.432;2023-07-13T00:51:54;97912.41;;;23.31;60.24
78717;BME280;68045;50.042;14.432;2023-07-13T00:55:56;97912.84;;;23.42;60.10
78717;BME280;68045;50.042;14.432;2023-07-13T01:00:01;97920.91;;;23.50;60.22
78717;BME280;68045;50.042;14.432;2023-07-13T01:04:10;97928.53;;;23.40;60.85
78717;BME280;68045;50.042;14.432;2023-07-13T01:08:11;97923.50;;;23.29;61.56
78717;BME280;68045;50.042;14.432;2023-07-13T01:12:12;97916.81;;;23.36;61.74
78717;BME280;68045;50.042;14.432;2023-07-13T01:16:19;97911.31;;;23.23;62.34
78717;BME280;68045;50.042;14.432;2023-07-13T01:20:22;97906.50;;;23.38;62.20
78717;BME280;68045;50.042;14.432;2023-07-13T01:24:23;97893.53;;;23.31;62.34
78717;BME280;68045;50.042;14.432;2023-07-13T01:28:25;97899.25;;;23.29;62.95
78717;BME280;68045;50.042;14.432;2023-07-13T01:32:27;97904.50;;;23.17;63.13
78717;BME280;68045;50.042;14.432;2023-07-13T01:36:29;97903.91;;;23.12;63.46
78717;BME280;68045;50.042;14.432;2023-07-13T01:40:31;97896.91;;;23.11;63.68
78717;BME280;68045;50.042;14.432;2023-07-13T01:44:32;97895.66;;;23.17;63.64
78717;BME280;68045;50.042;14.432;2023-07-13T01:48:32;97892.81;;;23.13;63.73
78717;BME280;68045;50.042;14.432;2023-07-13T01:52:35;97892.31;;;23.11;63.79
78717;BME280;68045;50.042;14.432;2023-07-13T01:56:36;97900.91;;;23.13;63.72
78717;BME280;68045;50.042;14.432;2023-07-13T02:00:37;97903.28;;;23.06;64.10
78717;BME280;68045;50.042;14.432;2023-07-13T02:04:37;97906.16;;;23.01;64.35
78717;BME280;68045;50.042;14.432;2023-07-13T02:08:40;97901.53;;;23.01;64.09
78717;BME280;68045;50.042;14.432;2023-07-13T02:12:42;97913.09;;;23.02;64.25
78717;BME280;68045;50.042;14.432;2023-07-13T02:16:43;97901.41;;;22.98;64.15
78717;BME280;68045;50.042;14.432;2023-07-13T02:20:44;97906.50;;;22.91;64.36
78717;BME280;68045;50.042;14.432;2023-07-13T02:24:45;97913.75;;;22.90;64.39
78717;BME280;68045;50.042;14.432;2023-07-13T02:28:46;97918.19;;;22.86;64.38
78717;BME280;68045;50.042;14.432;2023-07-13T02:32:47;97913.25;;;22.97;63.97
78717;BME280;68045;50.042;14.432;2023-07-13T02:36:48;97925.94;;;23.05;63.77
78717;BME280;68045;50.042;14.432;2023-07-13T02:40:49;97921.84;;;22.99;63.72
78717;BME280;68045;50.042;14.432;2023-07-13T02:44:49;97938.13;;;23.02;63.70
78717;BME280;68045;50.042;14.432;2023-07-13T02:48:52;97934.47;;;23.07;63.79
78717;BME280;68045;50.042;14.432;2023-07-13T02:52:54;97942.88;;;22.97;63.88
78717;BME280;68045;50.042;14.432;2023-07-13T02:56:56;97943.22;;;22.87;64.17
78717;BME280;68045;50.042;14.432;2023-07-13T03:00:57;97945.09;;;22.78;64.35
78717;BME280;68045;50.042;14.432;2023-07-13T03:04:59;97945.25;;;22.90;63.87
78717;BME280;68045;50.042;14.432;2023-07-13T03:08:59;97941.63;;;22.77;64.45
78717;BME280;68045;50.042;14.432;2023-07-13T03:13:02;97952.22;;;22.65;64.83
78717;BME280;68045;50.042;14.432;2023-07-13T03:17:03;97957.28;;;22.58;65.01
78717;BME280;68045;50.042;14.432;2023-07-13T03:21:07;97959.50;;;22.56;65.07
78717;BME280;68045;50.042;14.432;2023-07-13T03:25:08;97966.78;;;22.64;65.02
78717;BME280;68045;50.042;14.432;2023-07-13T03:29:10;97969.47;;;22.81;64.57
78717;BME280;68045;50.042;14.432;2023-07-13T03:33:11;97978.06;;;22.92;64.25
78717;BME280;68045;50.042;14.432;2023-07-13T03:37:13;97987.84;;;22.88;64.84
78717;BME280;68045;50.042;14.432;2023-07-13T03:41:15;97999.09;;;22.90;64.65
78717;BME280;68045;50.042;14.432;2023-07-13T03:45:19;98006.69;;;22.88;64.59
78717;BME280;68045;50.042;14.432;2023-07-13T03:49:21;98006.19;;;22.77;61.52
78717;BME280;68045;50.042;14.432;2023-07-13T03:53:22;98017.63;;;22.91;57.23
78717;BME280;68045;50.042;14.432;2023-07-13T03:57:23;98018.09;;;22.85;54.25
78717;BME280;68045;50.042;14.432;2023-07-13T04:01:25;98017.28;;;22.84;52.85
78717;BME280;68045;50.042;14.432;2023-07-13T04:05:26;98025.66;;;22.83;52.68
78717;BME280;68045;50.042;14.432;2023-07-13T04:09:27;98029.78;;;22.63;52.51
78717;BME280;68045;50.042;14.432;2023-07-13T04:13:29;98037.97;;;22.58;52.63
78717;BME280;68045;50.042;14.432;2023-07-13T04:17:29;98037.84;;;22.63;52.08
78717;BME280;68045;50.042;14.432;2023-07-13T04:21:31;98038.59;;;22.46;52.25
78717;BME280;68045;50.042;14.432;2023-07-13T04:25:32;98039.81;;;22.31;52.80
78717;BME280;68045;50.042;14.432;2023-07-13T04:29:33;98052.34;;;22.36;52.34
78717;BME280;68045;50.042;14.432;2023-07-13T04:33:34;98040.47;;;22.37;51.98
78717;BME280;68045;50.042;14.432;2023-07-13T04:37:35;98034.91;;;22.33;51.76
78717;BME280;68045;50.042;14.432;2023-07-13T04:41:36;98043.94;;;22.29;52.26
78717;BME280;68045;50.042;14.432;2023-07-13T04:45:37;98052.31;;;22.27;52.16
78717;BME280;68045;50.042;14.432;2023-07-13T04:49:38;98056.09;;;22.26;52.32
78717;BME280;68045;50.042;14.432;2023-07-13T04:53:38;98055.03;;;22.36;52.26
78717;BME280;68045;50.042;14.432;2023-07-13T04:57:39;98055.69;;;22.41;51.88
78717;BME280;68045;50.042;14.432;2023-07-13T05:01:40;98057.72;;;22.44;51.47
78717;BME280;68045;50.042;14.432;2023-07-13T05:05:42;98054.91;;;22.50;51.44
78717;BME280;68045;50.042;14.432;2023-07-13T05:09:43;98066.78;;;22.48;51.02
78717;BME280;68045;50.042;14.432;2023-07-13T05:13:44;98061.19;;;22.36;51.40
78717;BME280;68045;50.042;14.432;2023-07-13T05:17:45;98070.09;;;21.83;53.23
78717;BME280;68045;50.042;14.432;2023-07-13T05:21:46;98074.41;;;22.15;52.67
78717;BME280;68045;50.042;14.432;2023-07-13T05:25:47;98074.09;;;22.17;52.86
78717;BME280;68045;50.042;14.432;2023-07-13T05:29:48;98073.38;;;22.03;53.56
78717;BME280;68045;50.042;14.432;2023-07-13T05:33:49;98077.13;;;22.24;53.10
78717;BME280;68045;50.042;14.432;2023-07-13T05:37:50;98083.59;;;22.23;52.80
78717;BME280;68045;50.042;14.432;2023-07-13T05:41:50;98088.56;;;22.38;52.65
78717;BME280;68045;50.042;14.432;2023-07-13T05:45:55;98087.81;;;22.55;52.36
78717;BME280;68045;50.042;14.432;2023-07-13T05:49:57;98093.72;;;22.74;51.91
78717;BME280;68045;50.042;14.432;2023-07-13T05:53:57;98104.16;;;22.76;52.23
78717;BME280;68045;50.042;14.432;2023-07-13T05:58:00;98107.34;;;22.69;52.31
78717;BME280;68045;50.042;14.432;2023-07-13T06:02:01;98105.59;;;22.73;52.25
78717;BME280;68045;50.042;14.432;2023-07-13T06:06:02;98101.97;;;22.78;52.06
78717;BME280;68045;50.042;14.432;2023-07-13T06:10:04;98107.88;;;22.89;51.92
78717;BME280;68045;50.042;14.432;2023-07-13T06:14:05;98111.66;;;22.88;52.13
78717;BME280;68045;50.042;14.432;2023-07-13T06:18:06;98123.66;;;22.82;52.54
78717;BME280;68045;50.042;14.432;2023-07-13T06:22:07;98127.63;;;22.84;52.42
78717;BME280;68045;50.042;14.432;2023-07-13T06:26:09;98133.84;;;22.93;52.25
78717;BME280;68045;50.042;14.432;2023-07-13T06:30:10;98132.59;;;23.08;51.57
78717;BME280;68045;50.042;14.432;2023-07-13T06:34:11;98125.97;;;23.06;51.83
78717;BME280;68045;50.042;14.432;2023-07-13T06:38:11;98117.06;;;22.88;52.30
78717;BME280;68045;50.042;14.432;2023-07-13T06:42:13;98129.59;;;23.01;51.99
78717;BME280;68045;50.042;14.432;2023-07-13T06:46:14;98129.78;;;23.48;51.07
78717;BME280;68045;50.042;14.432;2023-07-13T06:50:15;98139.63;;;23.70;50.11
78717;BME280;68045;50.042;14.432;2023-07-13T06:54:16;98143.13;;;23.62;50.20
78717;BME280;68045;50.042;14.432;2023-07-13T06:58:18;98148.16;;;23.89;49.43
78717;BME280;68045;50.042;14.432;2023-07-13T07:02:19;98146.41;;;23.93;49.74
78717;BME280;68045;50.042;14.432;2023-07-13T07:06:21;98145.69;;;24.22;48.96
78717;BME280;68045;50.042;14.432;2023-07-13T07:10:25;98144.72;;;24.74;47.71
78717;BME280;68045;50.042;14.432;2023-07-13T07:14:26;98152.06;;;24.94;46.79
78717;BME280;68045;50.042;14.432;2023-07-13T07:18:27;98157.97;;;24.96;46.90
78717;BME280;68045;50.042;14.432;2023-07-13T07:22:29;98170.06;;;25.19;46.56
78717;BME280;68045;50.042;14.432;2023-07-13T07:26:31;98166.50;;;25.48;45.69
78717;BME280;68045;50.042;14.432;2023-07-13T07:30:32;98172.00;;;25.40;45.80
78717;BME280;68045;50.042;14.432;2023-07-13T07:34:33;98177.78;;;25.51;46.08
78717;BME280;68045;50.042;14.432;2023-07-13T07:38:33;98185.88;;;25.71;45.73
78717;BME280;68045;50.042;14.432;2023-07-13T07:42:34;98176.44;;;25.98;44.42
78717;BME280;68045;50.042;14.432;2023-07-13T07:46:36;98178.41;;;26.68;43.20
78717;BME280;68045;50.042;14.432;2023-07-13T07:50:36;98186.22;;;27.06;42.31
78717;BME280;68045;50.042;14.432;2023-07-13T07:54:39;98181.00;;;27.13;41.82
78717;BME280;68045;50.042;14.432;2023-07-13T07:58:40;98175.94;;;26.75;41.41
78717;BME280;68045;50.042;14.432;2023-07-13T08:02:41;98188.78;;;26.53;41.19
78717;BME280;68045;50.042;14.432;2023-07-13T08:06:42;98191.50;;;26.66;41.06
78717;BME280;68045;50.042;14.432;2023-07-13T08:10:43;98197.91;;;26.49;41.91
78717;BME280;68045;50.042;14.432;2023-07-13T08:14:44;98203.34;;;26.98;39.65
78717;BME280;68045;50.042;14.432;2023-07-13T08:18:45;98207.66;;;26.87;38.77
78717;BME280;68045;50.042;14.432;2023-07-13T08:22:45;98207.09;;;27.05;38.89
78717;BME280;68045;50.042;14.432;2023-07-13T08:26:47;98196.81;;;27.11;38.33
78717;BME280;68045;50.042;14.432;2023-07-13T08:30:48;98203.91;;;26.67;38.94
78717;BME280;68045;50.042;14.432;2023-07-13T08:34:50;98196.38;;;27.61;35.89
78717;BME280;68045;50.042;14.432;2023-07-13T08:38:51;98207.78;;;28.07;35.38
78717;BME280;68045;50.042;14.432;2023-07-13T08:42:58;98197.09;;;28.42;34.16
78717;BME280;68045;50.042;14.432;2023-07-13T08:46:59;98199.63;;;28.67;32.83
78717;BME280;68045;50.042;14.432;2023-07-13T08:51:41;98200.88;;;28.26;33.85
78717;BME280;68045;50.042;14.432;2023-07-13T08:55:44;98201.81;;;28.02;33.82
78717;BME280;68045;50.042;14.432;2023-07-13T08:59:45;98199.41;;;28.12;34.56
78717;BME280;68045;50.042;14.432;2023-07-13T09:03:50;98204.75;;;28.68;33.91
78717;BME280;68045;50.042;14.432;2023-07-13T09:16:46;98212.84;;;29.16;32.27
78717;BME280;68045;50.042;14.432;2023-07-13T09:20:51;98223.22;;;28.94;29.50
78717;BME280;68045;50.042;14.432;2023-07-13T09:25:00;98231.78;;;28.49;30.99
78717;BME280;68045;50.042;14.432;2023-07-13T09:29:19;98237.75;;;28.55;32.04
78717;BME280;68045;50.042;14.432;2023-07-13T09:33:22;98235.00;;;28.98;32.24
78717;BME280;68045;50.042;14.432;2023-07-13T09:37:31;98233.50;;;29.52;30.08
78717;BME280;68045;50.042;14.432;2023-07-13T09:45:55;98242.59;;;33.45;23.99
78717;BME280;68045;50.042;14.432;2023-07-13T09:49:59;98244.56;;;35.60;21.63
78717;BME280;68045;50.042;14.432;2023-07-13T09:54:01;98243.53;;;36.20;20.66
78717;BME280;68045;50.042;14.432;2023-07-13T09:58:06;98259.13;;;35.07;21.54
78717;BME280;68045;50.042;14.432;2023-07-13T10:02:33;98261.63;;;33.96;22.08
78717;BME280;68045;50.042;14.432;2023-07-13T10:06:34;98255.78;;;32.10;24.58
78717;BME280;68045;50.042;14.432;2023-07-13T10:10:35;98249.66;;;32.20;24.72
78717;BME280;68045;50.042;14.432;2023-07-13T10:14:36;98241.59;;;33.16;24.06
78717;BME280;68045;50.042;14.432;2023-07-13T10:18:46;98240.69;;;35.14;21.62
78717;BME280;68045;50.042;14.432;2023-07-13T10:23:10;98234.03;;;36.39;20.44
78717;BME280;68045;50.042;14.432;2023-07-13T10:27:16;98244.59;;;35.28;20.56
78717;BME280;68045;50.042;14.432;2023-07-13T10:31:18;98233.16;;;34.36;22.56
78717;BME280;68045;50.042;14.432;2023-07-13T10:35:21;98230.25;;;33.86;22.63
78717;BME280;68045;50.042;14.432;2023-07-13T10:39:26;98235.25;;;33.63;22.92
78717;BME280;68045;50.042;14.432;2023-07-13T10:43:33;98230.84;;;32.89;23.63
78717;BME280;68045;50.042;14.432;2023-07-13T10:47:37;98223.50;;;32.56;24.09
78717;BME280;68045;50.042;14.432;2023-07-13T10:51:40;98221.19;;;33.68;23.29
78717;BME280;68045;50.042;14.432;2023-07-13T11:00:17;98220.16;;;34.01;21.25
78717;BME280;68045;50.042;14.432;2023-07-13T11:04:19;98224.00;;;33.86;21.75
78717;BME280;68045;50.042;14.432;2023-07-13T11:08:33;98218.69;;;33.38;22.17
78717;BME280;68045;50.042;14.432;2023-07-13T11:12:50;98212.34;;;34.07;21.43
78717;BME280;68045;50.042;14.432;2023-07-13T11:16:51;98204.78;;;33.72;21.56
78717;BME280;68045;50.042;14.432;2023-07-13T11:21:12;98203.16;;;33.60;22.23
78717;BME280;68045;50.042;14.432;2023-07-13T11:25:21;98205.97;;;33.81;21.10
78717;BME280;68045;50.042;14.432;2023-07-13T11:29:37;98198.34;;;33.39;21.04
78717;BME280;68045;50.042;14.432;2023-07-13T11:37:39;98196.88;;;32.46;23.19
78717;BME280;68045;50.042;14.432;2023-07-13T11:41:45;98194.28;;;32.64;22.62
78717;BME280;68045;50.042;14.432;2023-07-13T11:45:49;98194.47;;;33.47;22.17
78717;BME280;68045;50.042;14.432;2023-07-13T11:49:55;98192.13;;;33.42;21.36
78717;BME280;68045;50.042;14.432;2023-07-13T11:54:04;98196.59;;;33.06;21.76
78717;BME280;68045;50.042;14.432;2023-07-13T11:58:09;98206.88;;;31.97;22.04
78717;BME280;68045;50.042;14.432;2023-07-13T12:02:27;98198.63;;;30.81;23.99
78717;BME280;68045;50.042;14.432;2023-07-13T12:06:31;98199.84;;;30.60;25.16
78717;BME280;68045;50.042;14.432;2023-07-13T12:10:32;98188.56;;;31.11;23.81
78717;BME280;68045;50.042;14.432;2023-07-13T12:14:34;98192.75;;;31.05;24.29
78717;BME280;68045;50.042;14.432;2023-07-13T12:18:34;98196.81;;;30.88;24.51
78717;BME280;68045;50.042;14.432;2023-07-13T12:22:35;98192.75;;;31.05;23.83
78717;BME280;68045;50.042;14.432;2023-07-13T12:26:36;98200.47;;;31.00;25.01
78717;BME280;68045;50.042;14.432;2023-07-13T12:30:37;98189.66;;;31.30;24.80
78717;BME280;68045;50.042;14.432;2023-07-13T12:34:54;98195.16;;;31.97;24.41
78717;BME280;68045;50.042;14.432;2023-07-13T12:39:00;98192.56;;;32.08;23.01
78717;BME280;68045;50.042;14.432;2023-07-13T12:43:04;98185.50;;;32.07;22.23
78717;BME280;68045;50.042;14.432;2023-07-13T12:47:12;98193.34;;;32.45;23.14
78717;BME280;68045;50.042;14.432;2023-07-13T12:51:14;98189.41;;;32.87;21.73
78717;BME280;68045;50.042;14.432;2023-07-13T12:55:18;98186.41;;;31.81;22.17
78717;BME280;68045;50.042;14.432;2023-07-13T12:59:22;98177.97;;;31.63;22.54
78717;BME280;68045;50.042;14.432;2023-07-13T13:03:30;98162.56;;;31.17;23.59
78717;BME280;68045;50.042;14.432;2023-07-13T13:07:33;98169.28;;;31.54;23.51
78717;BME280;68045;50.042;14.432;2023-07-13T13:11:34;98176.53;;;31.73;22.88
78717;BME280;68045;50.042;14.432;2023-07-13T13:15:36;98174.03;;;31.90;22.07
78717;BME280;68045;50.042;14.432;2023-07-13T13:19:37;98163.34;;;31.18;22.88
78717;BME280;68045;50.042;14.432;2023-07-13T13:23:38;98151.25;;;31.46;23.26
78717;BME280;68045;50.042;14.432;2023-07-13T13:27:42;98146.34;;;31.92;22.73
78717;BME280;68045;50.042;14.432;2023-07-13T13:31:44;98140.66;;;31.40;23.53
78717;BME280;68045;50.042;14.432;2023-07-13T13:35:45;98135.81;;;31.27;24.58
78717;BME280;68045;50.042;14.432;2023-07-13T13:39:46;98127.25;;;31.28;24.56
78717;BME280;68045;50.042;14.432;2023-07-13T13:43:49;98128.66;;;30.88;25.74
78717;BME280;68045;50.042;14.432;2023-07-13T13:47:49;98130.84;;;30.56;25.73
78717;BME280;68045;50.042;14.432;2023-07-13T13:51:54;98142.06;;;30.28;26.60
78717;BME280;68045;50.042;14.432;2023-07-13T13:55:55;98146.41;;;29.68;27.24
78717;BME280;68045;50.042;14.432;2023-07-13T13:59:56;98148.88;;;29.96;26.97
78717;BME280;68045;50.042;14.432;2023-07-13T14:03:57;98155.31;;;30.30;26.54
78717;BME280;68045;50.042;14.432;2023-07-13T14:07:59;98153.94;;;29.97;27.25
78717;BME280;68045;50.042;14.432;2023-07-13T14:12:00;98151.97;;;29.75;27.51
78717;BME280;68045;50.042;14.432;2023-07-13T14:16:01;98159.16;;;30.06;26.80
78717;BME280;68045;50.042;14.432;2023-07-13T14:20:02;98146.06;;;30.34;26.83
78717;BME280;68045;50.042;14.432;2023-07-13T14:24:05;98157.88;;;30.00;26.73
78717;BME280;68045;50.042;14.432;2023-07-13T14:28:20;98144.50;;;30.11;27.04
78717;BME280;68045;50.042;14.432;2023-07-13T14:32:21;98149.22;;;29.94;27.20
78717;BME280;68045;50.042;14.432;2023-07-13T14:36:32;98149.72;;;30.00;26.50
78717;BME280;68045;50.042;14.432;2023-07-13T14:40:32;98143.09;;;30.43;26.71
78717;BME280;68045;50.042;14.432;2023-07-13T14:44:34;98148.91;;;30.19;26.42
78717;BME280;68045;50.042;14.432;2023-07-13T14:48:34;98149.53;;;30.31;27.19
78717;BME280;68045;50.042;14.432;2023-07-13T14:52:35;98147.22;;;30.11;26.28
78717;BME280;68045;50.042;14.432;2023-07-13T14:56:36;98138.97;;;29.88;26.53
78717;BME280;68045;50.042;14.432;2023-07-13T15:00:37;98146.72;;;29.66;27.61
78717;BME280;68045;50.042;14.432;2023-07-13T15:04:38;98141.00;;;29.52;27.23
78717;BME280;68045;50.042;14.432;2023-07-13T15:08:39;98130.75;;;29.45;27.82
78717;BME280;68045;50.042;14.432;2023-07-13T15:12:41;98130.03;;;29.48;26.89
78717;BME280;68045;50.042;14.432;2023-07-13T15:16:42;98141.31;;;29.12;27.32
78717;BME280;68045;50.042;14.432;2023-07-13T15:20:45;98141.00;;;29.33;27.36
78717;BME280;68045;50.042;14.432;2023-07-13T15:24:47;98140.31;;;29.20;27.92
78717;BME280;68045;50.042;14.432;2023-07-13T15:28:48;98143.88;;;28.89;28.56
78717;BME280;68045;50.042;14.432;2023-07-13T15:32:49;98146.25;;;28.74;28.25
78717;BME280;68045;50.042;14.432;2023-07-13T15:36:49;98144.50;;;28.82;28.37
78717;BME280;68045;50.042;14.432;2023-07-13T15:40:51;98145.63;;;29.13;27.87
78717;BME280;68045;50.042;14.432;2023-07-13T15:44:51;98144.69;;;29.24;27.27
78717;BME280;68045;50.042;14.432;2023-07-13T15:48:53;98133.94;;;29.32;27.50
78717;BME280;68045;50.042;14.432;2023-07-13T15:52:55;98139.88;;;28.98;28.33
78717;BME280;68045;50.042;14.432;2023-07-13T15:57:01;98146.81;;;28.64;29.01
78717;BME280;68045;50.042;14.432;2023-07-13T16:01:02;98144.88;;;28.49;29.18
78717;BME280;68045;50.042;14.432;2023-07-13T16:05:03;98153.66;;;28.42;29.34
78717;BME280;68045;50.042;14.432;2023-07-13T16:09:04;98161.88;;;28.46;29.02
78717;BME280;68045;50.042;14.432;2023-07-13T16:13:24;98149.53;;;28.49;29.12
78717;BME280;68045;50.042;14.432;2023-07-13T16:17:26;98144.44;;;28.47;29.76
78717;BME280;68045;50.042;14.432;2023-07-13T16:21:31;98157.06;;;28.55;29.55
78717;BME280;68045;50.042;14.432;2023-07-13T16:25:33;98165.84;;;28.49;29.44
78717;BME280;68045;50.042;14.432;2023-07-13T16:29:34;98168.25;;;28.54;29.37
78717;BME280;68045;50.042;14.432;2023-07-13T16:33:35;98167.84;;;28.52;29.40
78717;BME280;68045;50.042;14.432;2023-07-13T16:37:37;98165.09;;;28.20;29.77
78717;BME280;68045;50.042;14.432;2023-07-13T16:41:38;98168.03;;;28.15;29.98
78717;BME280;68045;50.042;14.432;2023-07-13T16:45:40;98181.66;;;28.03;30.06
78717;BME280;68045;50.042;14.432;2023-07-13T16:49:45;98185.81;;;28.12;30.10
78717;BME280;68045;50.042;14.432;2023-07-13T16:53:47;98195.69;;;28.05;29.44
78717;BME280;68045;50.042;14.432;2023-07-13T16:57:48;98194.38;;;27.58;30.34
78717;BME280;68045;50.042;14.432;2023-07-13T17:01:49;98200.59;;;27.71;30.39
78717;BME280;68045;50.042;14.432;2023-07-13T17:05:50;98210.72;;;27.62;30.65
78717;BME280;68045;50.042;14.432;2023-07-13T17:09:51;98219.78;;;27.66;29.95
78717;BME280;68045;50.042;14.432;2023-07-13T17:13:52;98227.78;;;27.62;30.33
78717;BME280;68045;50.042;14.432;2023-07-13T17:17:53;98227.16;;;27.41;30.93
78717;BME280;68045;50.042;14.432;2023-07-13T17:22:04;98225.00;;;27.59;30.76
78717;BME280;68045;50.042;14.432;2023-07-13T17:26:06;98233.16;;;27.34;31.24
78717;BME280;68045;50.042;14.432;2023-07-13T17:30:14;98236.69;;;27.10;31.54
78717;BME280;68045;50.042;14.432;2023-07-13T17:34:16;98231.34;;;26.90;31.60
78717;BME280;68045;50.042;14.432;2023-07-13T17:38:30;98231.34;;;26.77;31.94
78717;BME280;68045;50.042;14.432;2023-07-13T17:42:31;98239.53;;;26.56;32.23
78717;BME280;68045;50.042;14.432;2023-07-13T17:46:33;98246.88;;;26.56;32.91
78717;BME280;68045;50.042;14.432;2023-07-13T17:50:35;98250.38;;;26.56;33.02
78717;BME280;68045;50.042;14.432;2023-07-13T17:54:36;98245.59;;;26.41;33.29
78717;BME280;68045;50.042;14.432;2023-07-13T17:58:38;98261.78;;;26.29;35.05
78717;BME280;68045;50.042;14.432;2023-07-13T18:02:39;98267.69;;;26.10;40.12
78717;BME280;68045;50.042;14.432;2023-07-13T18:06:42;98272.66;;;25.58;44.53
78717;BME280;68045;50.042;14.432;2023-07-13T18:10:54;98281.41;;;25.34;45.08
78717;BME280;68045;50.042;14.432;2023-07-13T18:14:55;98283.53;;;25.19;44.39
78717;BME280;68045;50.042;14.432;2023-07-13T18:18:56;98289.09;;;25.23;43.19
78717;BME280;68045;50.042;14.432;2023-07-13T18:22:58;98288.50;;;25.09;45.22
78717;BME280;68045;50.042;14.432;2023-07-13T18:26:59;98281.84;;;24.98;46.81
78717;BME280;68045;50.042;14.432;2023-07-13T18:31:00;98280.91;;;25.02;44.99
78717;BME280;68045;50.042;14.432;2023-07-13T18:35:01;98290.31;;;24.87;43.90
78717;BME280;68045;50.042;14.432;2023-07-13T18:39:02;98289.59;;;24.52;45.23
78717;BME280;68045;50.042;14.432;2023-07-13T18:43:03;98292.94;;;24.49;45.36
78717;BME280;68045;50.042;14.432;2023-07-13T18:47:04;98293.59;;;24.46;49.38
78717;BME280;68045;50.042;14.432;2023-07-13T18:51:07;98301.53;;;24.34;49.24
78717;BME280;68045;50.042;14.432;2023-07-13T18:55:19;98309.94;;;24.32;51.58
78717;BME280;68045;50.042;14.432;2023-07-13T18:59:21;98312.47;;;24.29;48.44
78717;BME280;68045;50.042;14.432;2023-07-13T19:03:28;98318.19;;;24.27;47.08
78717;BME280;68045;50.042;14.432;2023-07-13T19:07:31;98318.53;;;24.34;42.92
78717;BME280;68045;50.042;14.432;2023-07-13T19:11:33;98321.22;;;24.34;40.41
78717;BME280;68045;50.042;14.432;2023-07-13T19:15:34;98326.59;;;24.43;40.05
78717;BME280;68045;50.042;14.432;2023-07-13T19:19:36;98334.38;;;24.45;39.57
78717;BME280;68045;50.042;14.432;2023-07-13T19:23:40;98337.72;;;24.42;40.85
78717;BME280;68045;50.042;14.432;2023-07-13T19:27:42;98351.81;;;24.30;42.41
78717;BME280;68045;50.042;14.432;2023-07-13T19:31:44;98355.97;;;24.36;42.48
78717;BME280;68045;50.042;14.432;2023-07-13T19:35:45;98359.44;;;24.28;42.18
78717;BME280;68045;50.042;14.432;2023-07-13T19:39:47;98365.47;;;24.25;42.37
78717;BME280;68045;50.042;14.432;2023-07-13T19:43:52;98371.03;;;24.20;42.33
78717;BME280;68045;50.042;14.432;2023-07-13T19:47:53;98381.81;;;24.11;41.98
78717;BME280;68045;50.042;14.432;2023-07-13T19:51:54;98386.22;;;23.98;43.32
78717;BME280;68045;50.042;14.432;2023-07-13T19:55:55;98386.88;;;24.13;40.57
78717;BME280;68045;50.042;14.432;2023-07-13T19:59:55;98394.97;;;24.21;40.35
78717;BME280;68045;50.042;14.432;2023-07-13T20:03:59;98404.19;;;24.11;39.45
78717;BME280;68045;50.042;14.432;2023-07-13T20:08:00;98407.16;;;24.01;39.87
78717;BME280;68045;50.042;14.432;2023-07-13T20:12:01;98405.22;;;23.84;39.86
78717;BME280;68045;50.042;14.432;2023-07-13T20:16:02;98421.22;;;23.81;39.42
78717;BME280;68045;50.042;14.432;2023-07-13T20:20:30;98419.50;;;23.76;40.05
78717;BME280;68045;50.042;14.432;2023-07-13T20:24:32;98426.63;;;23.81;40.52
78717;BME280;68045;50.042;14.432;2023-07-13T20:28:33;98422.19;;;23.76;40.36
78717;BME280;68045;50.042;14.432;2023-07-13T20:32:36;98434.25;;;23.88;40.64
78717;BME280;68045;50.042;14.432;2023-07-13T20:36:38;98437.06;;;23.74;41.30
78717;BME280;68045;50.042;14.432;2023-07-13T20:40:39;98443.09;;;23.71;41.49
78717;BME280;68045;50.042;14.432;2023-07-13T20:44:39;98448.47;;;23.71;40.84
78717;BME280;68045;50.042;14.432;2023-07-13T20:48:42;98447.03;;;23.65;41.66
78717;BME280;68045;50.042;14.432;2023-07-13T20:52:49;98450.94;;;23.58;42.57
78717;BME280;68045;50.042;14.432;2023-07-13T20:56:50;98457.44;;;23.57;42.44
78717;BME280;68045;50.042;14.432;2023-07-13T21:00:51;98460.09;;;23.49;44.54
78717;BME280;68045;50.042;14.432;2023-07-13T21:04:55;98467.50;;;23.43;45.37
78717;BME280;68045;50.042;14.432;2023-07-13T21:08:57;98474.47;;;23.44;45.32
78717;BME280;68045;50.042;14.432;2023-07-13T21:12:58;98471.78;;;23.44;44.35
78717;BME280;68045;50.042;14.432;2023-07-13T21:16:58;98471.53;;;23.32;46.30
78717;BME280;68045;50.042;14.432;2023-07-13T21:20:59;98473.41;;;23.23;45.77
78717;BME280;68045;50.042;14.432;2023-07-13T21:25:12;98476.34;;;23.35;45.72
78717;BME280;68045;50.042;14.432;2023-07-13T21:29:13;98481.78;;;23.44;45.39
78717;BME280;68045;50.042;14.432;2023-07-13T21:33:14;98481.31;;;23.19;46.26